Time;durP1;ratioP1;P1;durP2;ratioP2;P2;SDS_P1;SDS_P2;PMS_P1;PMS_P2;Temp;Humidity;BMP_temperature;BMP_pressure;BME280_temperature;BME280_humidity;BME280_pressure;Samples;Min_cycle;Max_cycle;Signal;HPM_P1;HPM_P2
2021/03/29 00:02:00;;;;;;;38.72;19.52;;;230.80;1433.60;;;;;;4842358;29;20476;-70
2021/03/29 00:04:26;;;;;;;39.60;21.88;;;230.70;1459.20;;;;;;4836254;29;20050;-70
2021/03/29 00:06:53;;;;;;;40.47;21.40;;;230.60;1459.20;;;;;;4842126;29;20022;-71
2021/03/29 00:09:20;;;;;;;37.83;24.30;;;230.60;1459.20;;;;;;4844427;29;20034;-72
2021/03/29 00:11:47;;;;;;;39.42;22.45;;;230.60;1459.20;;;;;;4825606;29;20757;-71
2021/03/29 00:14:14;;;;;;;38.22;23.95;;;230.60;1484.80;;;;;;4846321;29;20057;-71
2021/03/29 00:16:40;;;;;;;43.45;27.67;;;230.60;1484.80;;;;;;4842404;29;20033;-71
2021/03/29 00:19:08;;;;;;;49.08;29.73;;;230.60;1484.80;;;;;;4843703;29;20050;-71
2021/03/29 00:21:35;;;;;;;46.70;27.60;;;230.50;1484.80;;;;;;4842068;29;20034;-71
2021/03/29 00:24:01;;;;;;;44.25;26.83;;;230.60;1459.20;;;;;;4842383;29;20048;-71
2021/03/29 00:26:27;;;;;;;46.22;26.98;;;230.60;1484.80;;;;;;4839808;29;20385;-70
2021/03/29 00:28:53;;;;;;;41.58;23.17;;;230.50;1484.80;;;;;;4842734;29;20045;-70
2021/03/29 00:31:19;;;;;;;33.88;20.65;;;230.50;1484.80;;;;;;4828803;29;20432;-70
2021/03/29 00:33:46;;;;;;;33.28;21.10;;;230.50;1484.80;;;;;;4851099;29;20442;-70
2021/03/29 00:36:12;;;;;;;41.03;21.73;;;230.50;1484.80;;;;;;4850777;29;20050;-70
2021/03/29 00:38:38;;;;;;;37.28;21.05;;;230.50;1484.80;;;;;;4852129;29;20040;-70
2021/03/29 00:41:09;;;;;;;40.65;22.20;;;230.40;1484.80;;;;;;4825742;29;20025;-70
2021/03/29 00:43:39;;;;;;;38.30;22.40;;;230.40;1484.80;;;;;;4845382;29;20113;-70
2021/03/29 00:46:07;;;;;;;47.03;22.48;;;230.40;1484.80;;;;;;4825628;29;20018;-70
2021/03/29 00:48:35;;;;;;;34.42;21.10;;;230.40;1510.40;;;;;;4846439;29;20403;-70
2021/03/29 00:51:17;;;;;;;36.05;21.55;;;205.70;1510.40;;;;;;4842282;29;20022;-70
2021/03/29 00:53:52;;;;;;;35.42;19.70;;;205.70;1510.40;;;;;;4842128;29;20109;-71
2021/03/29 00:56:18;;;;;;;34.45;20.80;;;205.60;1510.40;;;;;;4842575;29;20108;-71
2021/03/29 00:58:49;;;;;;;30.55;20.55;;;205.50;1510.40;;;;;;4825819;29;20058;-71
2021/03/29 01:01:23;;;;;;;42.22;21.83;;;205.60;1510.40;;;;;;4842731;29;20050;-71
2021/03/29 01:03:54;;;;;;;32.60;20.13;;;205.40;1510.40;;;;;;4825895;29;20036;-71
2021/03/29 01:06:23;;;;;;;45.03;21.70;;;205.30;1536.00;;;;;;4842585;29;20025;-71
2021/03/29 01:09:02;;;;;;;35.70;21.75;;;205.30;1536.00;;;;;;4840556;29;20082;-71
2021/03/29 01:11:31;;;;;;;32.92;20.27;;;205.40;1536.00;;;;;;4842312;29;20046;-71
2021/03/29 01:14:01;;;;;;;42.83;20.92;;;205.40;1536.00;;;;;;4828911;29;20086;-70
2021/03/29 01:16:32;;;;;;;35.05;19.55;;;205.40;1536.00;;;;;;4841888;29;20025;-71
2021/03/29 01:19:00;;;;;;;35.80;20.25;;;205.40;1536.00;;;;;;4825046;29;20429;-70
2021/03/29 01:21:38;;;;;;;34.63;20.27;;;205.30;1536.00;;;;;;4825205;29;20036;-70
2021/03/29 01:24:15;;;;;;;37.80;21.42;;;205.20;1536.00;;;;;;4841580;29;20397;-70
2021/03/29 01:26:46;;;;;;;41.83;22.15;;;205.10;1561.60;;;;;;4830153;29;20106;-71
2021/03/29 01:29:16;;;;;;;44.47;22.73;;;205.10;1587.20;;;;;;4848430;29;20034;-71
2021/03/29 01:31:42;;;;;;;31.27;20.20;;;205.10;1587.20;;;;;;4848884;29;20046;-71
2021/03/29 01:34:12;;;;;;;42.40;22.90;;;205.00;1561.60;;;;;;4851227;29;20117;-71
2021/03/29 01:36:39;;;;;;;38.78;21.75;;;205.00;1612.80;;;;;;4824960;29;20069;-71
2021/03/29 01:39:06;;;;;;;38.55;23.35;;;205.00;1612.80;;;;;;4841750;29;20396;-71
2021/03/29 01:41:34;;;;;;;34.90;22.85;;;205.00;1587.20;;;;;;4825558;29;20022;-71
2021/03/29 01:44:00;;;;;;;40.50;22.70;;;205.00;1587.20;;;;;;4841984;29;20029;-70
2021/03/29 01:46:27;;;;;;;33.13;21.35;;;204.90;1587.20;;;;;;4840403;29;20030;-71
2021/03/29 01:48:54;;;;;;;31.38;19.83;;;204.90;1612.80;;;;;;4842667;29;20514;-71
2021/03/29 01:51:20;;;;;;;37.28;22.05;;;204.80;1612.80;;;;;;4849585;29;20029;-71
2021/03/29 01:53:47;;;;;;;33.42;21.85;;;204.80;1612.80;;;;;;4842957;29;20034;-71
2021/03/29 01:56:14;;;;;;;34.90;22.30;;;204.80;1612.80;;;;;;4841449;29;20042;-71
2021/03/29 01:58:40;;;;;;;45.08;28.08;;;180.10;1638.40;;;;;;4825849;29;20045;-71
2021/03/29 02:01:10;;;;;;;43.85;26.98;;;180.00;1638.40;;;;;;4849807;29;20024;-71
2021/03/29 02:03:36;;;;;;;47.83;27.00;;;180.00;1664.00;;;;;;4826373;29;20022;-71
2021/03/29 02:06:03;;;;;;;38.53;25.40;;;179.90;1664.00;;;;;;4841702;29;20506;-71
2021/03/29 02:08:31;;;;;;;43.38;26.95;;;179.80;1689.60;;;;;;4841423;29;20042;-71
2021/03/29 02:10:58;;;;;;;47.17;27.42;;;179.80;1715.20;;;;;;4824840;29;20030;-71
2021/03/29 02:13:30;;;;;;;44.17;28.52;;;179.70;1715.20;;;;;;4824905;29;20037;-70
2021/03/29 02:16:00;;;;;;;48.60;29.63;;;179.70;1740.80;;;;;;4841031;29;20030;-71
2021/03/29 02:18:29;;;;;;;57.97;33.20;;;179.70;1740.80;;;;;;4824443;29;20042;-70
2021/03/29 02:21:00;;;;;;;51.83;29.77;;;179.60;1740.80;;;;;;4840963;29;20014;-71
2021/03/29 02:23:28;;;;;;;53.33;31.90;;;179.60;1740.80;;;;;;4824858;29;20090;-70
2021/03/29 02:25:54;;;;;;;57.05;36.35;;;179.50;1740.80;;;;;;4824540;29;20022;-71
2021/03/29 02:28:20;;;;;;;62.15;38.97;;;179.40;1740.80;;;;;;4841133;29;20108;-70
2021/03/29 02:30:47;;;;;;;62.78;37.85;;;179.40;1740.80;;;;;;4841077;29;20057;-70
2021/03/29 02:33:15;;;;;;;52.80;31.38;;;179.30;1740.80;;;;;;4840942;29;20038;-70
2021/03/29 02:35:41;;;;;;;44.72;28.25;;;179.30;1766.40;;;;;;4841061;29;20026;-70
2021/03/29 02:38:12;;;;;;;46.35;29.05;;;179.20;1766.40;;;;;;4842678;29;20034;-70
2021/03/29 02:40:38;;;;;;;46.80;28.35;;;179.20;1766.40;;;;;;4841336;29;20426;-70
2021/03/29 02:43:04;;;;;;;52.10;28.92;;;154.30;1792.00;;;;;;4833340;29;20030;-70
2021/03/29 02:45:34;;;;;;;51.60;33.15;;;154.00;1843.20;;;;;;4822129;29;20034;-70
2021/03/29 02:48:03;;;;;;;50.70;32.05;;;153.80;1868.80;;;;;;4853881;29;20026;-70
2021/03/29 02:50:31;;;;;;;55.90;33.10;;;153.70;1868.80;;;;;;4840659;29;20087;-70
2021/03/29 02:52:59;;;;;;;51.85;29.48;;;153.70;1868.80;;;;;;4849830;29;20090;-70
2021/03/29 02:55:27;;;;;;;50.95;31.30;;;153.60;1894.40;;;;;;4845985;29;20047;-71
2021/03/29 02:57:54;;;;;;;50.30;30.88;;;153.60;1894.40;;;;;;4846481;29;20387;-70
2021/03/29 03:00:23;;;;;;;53.63;30.27;;;128.90;1920.00;;;;;;4844426;29;20026;-70
2021/03/29 03:02:50;;;;;;;51.35;30.42;;;128.90;1920.00;;;;;;4827685;29;20492;-70
2021/03/29 03:05:19;;;;;;;72.65;36.47;;;128.90;1920.00;;;;;;4844540;29;20049;-70
2021/03/29 03:07:45;;;;;;;65.85;35.88;;;128.90;1920.00;;;;;;4844396;29;20397;-70
2021/03/29 03:10:13;;;;;;;62.05;34.65;;;128.80;1945.60;;;;;;4844293;29;20030;-70
2021/03/29 03:12:44;;;;;;;61.28;34.25;;;128.90;1945.60;;;;;;4830308;29;20062;-71
2021/03/29 03:15:16;;;;;;;69.60;36.88;;;153.60;1945.60;;;;;;4849527;29;20030;-70
2021/03/29 03:17:43;;;;;;;60.75;34.80;;;128.90;1945.60;;;;;;4852796;29;20034;-72
2021/03/29 03:20:11;;;;;;;52.25;31.27;;;153.70;1920.00;;;;;;4844282;29;20035;-72
2021/03/29 03:22:58;;;;;;;48.75;28.70;;;153.60;1920.00;;;;;;4828020;29;20174;-71
2021/03/29 03:25:29;;;;;;;46.15;27.17;;;153.60;1894.40;;;;;;4846143;29;20155;-71
2021/03/29 03:27:57;;;;;;;58.35;28.85;;;153.90;1868.80;;;;;;4843985;29;20054;-73
2021/03/29 03:30:26;;;;;;;49.78;29.75;;;153.90;1868.80;;;;;;4843615;29;20040;-71
2021/03/29 03:32:53;;;;;;;61.97;32.85;;;153.70;1894.40;;;;;;4833074;29;20030;-70
2021/03/29 03:35:21;;;;;;;50.13;29.38;;;153.70;1920.00;;;;;;4827544;29;20034;-71
2021/03/29 03:37:52;;;;;;;58.97;34.70;;;153.70;1920.00;;;;;;4827411;29;20037;-72
2021/03/29 03:40:21;;;;;;;58.20;33.28;;;153.60;1920.00;;;;;;4844482;29;20033;-71
2021/03/29 03:42:49;;;;;;;68.57;39.13;;;128.90;1920.00;;;;;;4843746;29;20025;-70
2021/03/29 03:45:18;;;;;;;70.90;38.40;;;128.80;1945.60;;;;;;4826999;29;20113;-71
2021/03/29 03:47:44;;;;;;;72.47;39.17;;;128.90;1945.60;;;;;;4825871;29;20110;-70
2021/03/29 03:50:11;;;;;;;81.93;38.25;;;128.90;1920.00;;;;;;4843354;29;20036;-70
2021/03/29 03:52:40;;;;;;;67.40;38.65;;;128.80;1945.60;;;;;;4826971;29;20090;-71
2021/03/29 03:55:08;;;;;;;72.88;41.75;;;128.80;1945.60;;;;;;4830092;29;20052;-71
2021/03/29 03:57:39;;;;;;;73.97;43.83;;;128.70;1971.20;;;;;;4842603;29;20504;-70
2021/03/29 04:00:14;;;;;;;75.80;41.67;;;128.60;1996.80;;;;;;4838078;29;20029;-70
2021/03/29 04:02:40;;;;;;;83.88;43.13;;;128.70;2022.40;;;;;;4842655;29;20026;-71
2021/03/29 04:05:11;;;;;;;68.85;39.00;;;128.60;2022.40;;;;;;4843192;29;20730;-70
2021/03/29 04:07:37;;;;;;;67.90;39.33;;;128.60;2022.40;;;;;;4842016;29;20373;-70
2021/03/29 04:10:15;;;;;;;73.22;39.53;;;128.70;1996.80;;;;;;4825963;29;20050;-71
2021/03/29 04:12:43;;;;;;;65.82;39.60;;;128.80;1996.80;;;;;;4843126;29;20053;-70
2021/03/29 04:15:09;;;;;;;65.15;38.70;;;128.90;1971.20;;;;;;4842157;29;20032;-71
2021/03/29 04:17:35;;;;;;;68.43;41.67;;;153.60;1971.20;;;;;;4843156;29;20026;-71
2021/03/29 04:20:01;;;;;;;66.82;40.47;;;128.80;1971.20;;;;;;4846767;29;20464;-71
2021/03/29 04:22:27;;;;;;;65.97;44.25;;;128.70;1971.20;;;;;;4826735;29;20451;-71
2021/03/29 04:24:53;;;;;;;67.97;42.80;;;128.70;1971.20;;;;;;4834200;29;20488;-72
2021/03/29 04:27:19;;;;;;;80.65;41.42;;;128.80;1971.20;;;;;;4843483;29;20049;-72
2021/03/29 04:29:44;;;;;;;69.82;40.80;;;128.80;1971.20;;;;;;4829330;29;20221;-71
2021/03/29 04:32:10;;;;;;;83.35;44.13;;;128.80;1971.20;;;;;;4842710;29;20425;-72
2021/03/29 04:34:36;;;;;;;75.55;41.58;;;128.80;1971.20;;;;;;4827405;29;20090;-72
2021/03/29 04:37:02;;;;;;;72.47;41.90;;;128.70;1996.80;;;;;;4842870;29;20063;-71
2021/03/29 04:39:28;;;;;;;78.10;41.92;;;128.80;1971.20;;;;;;4843039;29;20021;-71
2021/03/29 04:41:54;;;;;;;87.22;54.80;;;153.60;1971.20;;;;;;4851242;29;20840;-71
2021/03/29 04:44:20;;;;;;;105.40;63.55;;;153.70;1945.60;;;;;;4852589;29;20033;-71
2021/03/29 04:46:45;;;;;;;105.53;65.70;;;153.90;1945.60;;;;;;4835094;29;20034;-71
2021/03/29 04:49:11;;;;;;;101.35;60.65;;;153.90;1920.00;;;;;;4827217;29;20042;-72
2021/03/29 04:51:37;;;;;;;84.45;51.50;;;154.00;1920.00;;;;;;4842574;29;20037;-71
2021/03/29 04:54:03;;;;;;;90.82;52.20;;;154.00;1920.00;;;;;;4843026;29;20087;-71
2021/03/29 04:56:29;;;;;;;84.55;46.28;;;153.90;1945.60;;;;;;4842606;29;20034;-71
2021/03/29 04:58:54;;;;;;;110.50;50.08;;;153.80;1945.60;;;;;;4829916;29;20545;-71
2021/03/29 05:01:20;;;;;;;86.15;47.90;;;153.90;1971.20;;;;;;4837825;29;20182;-71
2021/03/29 05:03:46;;;;;;;95.65;46.08;;;154.00;1945.60;;;;;;4835922;29;20023;-70
2021/03/29 05:06:12;;;;;;;75.57;46.67;;;154.20;1945.60;;;;;;4827929;29;20040;-71
2021/03/29 05:08:37;;;;;;;84.85;46.25;;;154.40;1920.00;;;;;;4842439;29;20039;-70
2021/03/29 05:11:03;;;;;;;69.35;42.35;;;154.40;1894.40;;;;;;4841837;29;20093;-70
2021/03/29 05:13:29;;;;;;;79.70;45.00;;;154.30;1920.00;;;;;;4849677;29;20030;-70
2021/03/29 05:15:54;;;;;;;109.32;53.00;;;154.50;1894.40;;;;;;4827230;29;20094;-70
2021/03/29 05:18:20;;;;;;;89.18;49.85;;;154.50;1920.00;;;;;;4834699;29;20037;-71
2021/03/29 05:20:46;;;;;;;86.18;49.42;;;179.30;1920.00;;;;;;4841608;29;20026;-70
2021/03/29 05:23:12;;;;;;;77.50;42.50;;;179.50;1894.40;;;;;;4844832;29;20022;-70
2021/03/29 05:25:37;;;;;;;82.22;44.28;;;179.50;1868.80;;;;;;4848239;29;20054;-72
2021/03/29 05:28:03;;;;;;;67.57;39.40;;;179.50;1843.20;;;;;;4848264;29;20041;-70
2021/03/29 05:30:29;;;;;;;77.20;44.95;;;179.70;1843.20;;;;;;4844406;29;20037;-70
2021/03/29 05:32:55;;;;;;;74.13;42.92;;;179.70;1843.20;;;;;;4824949;29;20691;-71
2021/03/29 05:35:20;;;;;;;77.28;42.25;;;179.80;1843.20;;;;;;4824321;29;20049;-70
2021/03/29 05:37:46;;;;;;;79.57;45.13;;;179.90;1817.60;;;;;;4841065;29;20091;-70
2021/03/29 05:40:16;;;;;;;80.50;42.83;;;180.00;1792.00;;;;;;4823951;29;20042;-70
2021/03/29 05:42:43;;;;;;;76.78;47.38;;;180.00;1766.40;;;;;;4841189;29;20075;-70
2021/03/29 05:45:10;;;;;;;65.95;41.40;;;204.80;1792.00;;;;;;4841618;29;20030;-70
2021/03/29 05:47:37;;;;;;;70.45;44.17;;;204.90;1766.40;;;;;;4850011;29;20030;-70
2021/03/29 05:50:10;;;;;;;79.80;45.25;;;204.80;1766.40;;;;;;4821983;29;20037;-69
2021/03/29 05:52:36;;;;;;;62.67;37.63;;;204.80;1740.80;;;;;;4834790;29;20036;-71
2021/03/29 05:55:03;;;;;;;69.68;40.83;;;180.10;1715.20;;;;;;4824674;29;20034;-71
2021/03/29 05:57:39;;;;;;;76.15;43.03;;;204.80;1740.80;;;;;;4818810;29;20041;-70
2021/03/29 06:00:23;;;;;;;;;;;204.80;1766.40;;;;;;4839826;29;20511;-70
2021/03/29 06:02:49;;;;;;;64.70;42.50;;;204.80;1766.40;;;;;;4818901;29;19951;-71
2021/03/29 06:05:31;;;;;;;65.75;41.47;;;204.90;1740.80;;;;;;4843050;29;20062;-71
2021/03/29 06:07:58;;;;;;;77.28;43.80;;;205.10;1715.20;;;;;;4840046;29;20034;-71
2021/03/29 06:10:34;;;;;;;70.90;41.75;;;205.20;1740.80;;;;;;4827179;29;20037;-71
2021/03/29 06:13:18;;;;;;;86.80;52.65;;;205.40;1715.20;;;;;;4840957;29;20032;-70
2021/03/29 06:15:45;;;;;;;104.22;56.05;;;205.40;1664.00;;;;;;4821754;29;20061;-70
2021/03/29 06:18:12;;;;;;;55.10;35.03;;;205.40;1664.00;;;;;;4840391;29;20046;-70
2021/03/29 06:20:57;;;;;;;99.88;55.83;;;205.50;1664.00;;;;;;4834330;29;20424;-70
2021/03/29 06:23:22;;;;;;;56.80;34.00;;;205.60;1664.00;;;;;;4824182;29;20102;-71
2021/03/29 06:25:48;;;;;;;161.95;84.40;;;205.70;1664.00;;;;;;4820112;29;20081;-71
2021/03/29 06:28:27;;;;;;;98.95;54.05;;;230.40;1638.40;;;;;;4839777;29;20042;-71
2021/03/29 06:30:53;;;;;;;60.80;36.33;;;230.80;1612.80;;;;;;4846460;29;20029;-71
2021/03/29 06:33:19;;;;;;;84.75;46.03;;;231.00;1587.20;;;;;;4838003;29;20567;-71
2021/03/29 06:35:51;;;;;;;301.92;164.48;;;231.20;1561.60;;;;;;4836878;29;20521;-71
2021/03/29 06:38:19;;;;;;;103.05;66.13;;;231.30;1536.00;;;;;;4838377;29;20058;-71
2021/03/29 06:40:54;;;;;;;84.78;57.05;;;256.00;1536.00;;;;;;4839229;29;20025;-71
2021/03/29 06:43:29;;;;;;;99.90;54.63;;;256.20;1510.40;;;;;;4841861;29;20030;-72
2021/03/29 06:46:00;;;;;;;139.95;70.93;;;256.40;1484.80;;;;;;4822237;29;20026;-71
2021/03/29 06:48:36;;;;;;;120.75;71.15;;;256.60;1484.80;;;;;;4842484;29;20044;-71
2021/03/29 06:51:22;;;;;;;68.20;40.80;;;256.80;1459.20;;;;;;4841190;29;20079;-72
2021/03/29 06:53:58;;;;;;;53.90;32.42;;;281.70;1459.20;;;;;;4822502;29;20073;-72
2021/03/29 06:56:24;;;;;;;50.90;31.60;;;282.10;1408.00;;;;;;4838644;29;20026;-72
2021/03/29 06:58:51;;;;;;;48.22;29.50;;;282.20;1433.60;;;;;;4839239;29;20034;-71
2021/03/29 07:01:25;;;;;;;39.65;25.17;;;282.20;1408.00;;;;;;4839232;29;20437;-72
2021/03/29 07:03:53;;;;;;;48.67;28.65;;;282.50;1408.00;;;;;;4818230;29;20030;-72
2021/03/29 07:06:28;;;;;;;38.28;22.88;;;307.20;1408.00;;;;;;4840113;29;20033;-72
2021/03/29 07:09:03;;;;;;;51.83;25.90;;;307.40;1382.40;;;;;;4839003;29;20038;-73
2021/03/29 07:11:29;;;;;;;41.42;28.58;;;307.50;1382.40;;;;;;4821800;29;20038;-72
2021/03/29 07:13:56;;;;;;;75.97;41.42;;;307.60;1382.40;;;;;;4822202;29;20094;-72
2021/03/29 07:16:24;;;;;;;59.22;34.47;;;307.80;1356.80;;;;;;4822410;29;20026;-72
2021/03/29 07:18:51;;;;;;;37.33;24.10;;;307.80;1356.80;;;;;;4822177;29;20041;-72
2021/03/29 07:21:16;;;;;;;34.90;21.90;;;308.00;1331.20;;;;;;4838821;29;20018;-72
2021/03/29 07:23:43;;;;;;;26.50;17.50;;;333.10;1331.20;;;;;;4838468;29;20471;-73
2021/03/29 07:26:31;;;;;;;26.80;17.20;;;333.30;1280.00;;;;;;4840954;29;20042;-70
2021/03/29 07:28:56;;;;;;;28.15;19.33;;;333.70;1280.00;;;;;;4821441;29;20050;-70
2021/03/29 07:31:38;;;;;;;30.27;18.50;;;358.40;1228.80;;;;;;4838318;29;20029;-70
2021/03/29 07:34:04;;;;;;;24.30;18.00;;;358.70;1254.40;;;;;;4819774;29;20041;-70
2021/03/29 07:36:51;;;;;;;34.63;19.70;;;359.10;1228.80;;;;;;4836859;29;20542;-72
2021/03/29 07:39:21;;;;;;;;;;;384.20;1177.60;;;;;;4836295;29;20122;-70
2021/03/29 07:42:07;;;;;;;25.35;12.80;;;384.40;1126.40;;;;;;4820027;29;19909;-70
2021/03/29 07:44:53;;;;;;;24.00;14.55;;;384.70;1075.20;;;;;;4839699;29;20034;-70
2021/03/29 07:47:58;;;;;;;18.08;10.45;;;409.80;1075.20;;;;;;4843651;29;20048;-70
2021/03/29 07:50:26;;;;;;;13.77;10.10;;;410.20;1024.00;;;;;;4747379;30;20560;-70
2021/03/29 07:52:55;;;;;;;16.40;9.20;;;410.20;998.40;;;;;;4767725;30;20082;-72
2021/03/29 07:55:54;;;;;;;14.60;9.68;;;410.30;972.80;;;;;;4763816;29;20138;-71
2021/03/29 07:58:23;;;;;;;13.50;7.70;;;410.20;972.80;;;;;;4767648;30;20178;-72
2021/03/29 08:01:00;;;;;;;13.93;7.72;;;435.40;921.60;;;;;;4766760;30;20059;-69
2021/03/29 08:03:26;;;;;;;11.27;7.13;;;435.30;896.00;;;;;;4767551;30;20034;-69
2021/03/29 08:05:52;;;;;;;15.98;8.05;;;410.10;896.00;;;;;;4767286;30;20080;-70
2021/03/29 08:08:27;;;;;;;12.48;7.07;;;435.30;921.60;;;;;;4762156;30;20040;-70
2021/03/29 08:11:18;;;;;;;9.05;6.38;;;435.70;896.00;;;;;;4766506;30;20419;-72
2021/03/29 08:13:55;;;;;;;12.38;7.93;;;435.50;870.40;;;;;;4753099;30;20391;-70
2021/03/29 08:16:33;;;;;;;11.02;6.55;;;435.90;870.40;;;;;;4768754;30;20040;-71
2021/03/29 08:19:07;;;;;;;11.02;6.75;;;461.10;870.40;;;;;;4768285;30;20047;-70
2021/03/29 08:22:02;;;;;;;9.65;6.03;;;461.50;844.80;;;;;;4816560;29;20053;-70
2021/03/29 08:24:43;;;;;;;16.80;7.22;;;486.60;819.20;;;;;;4813907;29;20044;-71
2021/03/29 08:27:15;;;;;;;18.45;7.47;;;487.00;793.60;;;;;;4839119;29;20407;-71
2021/03/29 08:29:42;;;;;;;11.20;6.40;;;487.30;793.60;;;;;;4824179;29;20442;-71
2021/03/29 08:32:31;;;;;;;10.18;5.53;;;512.00;793.60;;;;;;4822363;29;20053;-71
2021/03/29 08:35:04;;;;;;;10.57;5.65;;;512.30;768.00;;;;;;4841355;29;20033;-72
2021/03/29 08:37:34;;;;;;;10.07;5.28;;;512.30;768.00;;;;;;4823754;29;20042;-72
2021/03/29 08:40:04;;;;;;;10.27;6.55;;;512.30;768.00;;;;;;4823441;29;20058;-72
2021/03/29 08:42:32;;;;;;;13.95;6.43;;;512.30;768.00;;;;;;4823996;29;20104;-72
2021/03/29 08:45:04;;;;;;;10.07;6.25;;;512.30;768.00;;;;;;4809303;29;20326;-73
2021/03/29 08:47:30;;;;;;;10.75;6.10;;;512.20;793.60;;;;;;4822565;29;20065;-73
2021/03/29 08:49:58;;;;;;;13.07;6.28;;;512.80;768.00;;;;;;4828461;29;20037;-73
2021/03/29 08:52:25;;;;;;;10.57;5.88;;;512.40;768.00;;;;;;4823473;29;20038;-73
2021/03/29 08:54:58;;;;;;;9.77;5.65;;;512.70;768.00;;;;;;4841293;29;20026;-73
2021/03/29 08:57:29;;;;;;;11.05;5.50;;;537.90;793.60;;;;;;4824048;29;20026;-73
2021/03/29 09:00:12;;;;;;;10.30;6.28;;;537.70;793.60;;;;;;4844140;29;20018;-73
2021/03/29 09:02:38;;;;;;;13.55;7.03;;;538.40;768.00;;;;;;4841105;29;20413;-71
2021/03/29 09:05:06;;;;;;;14.85;6.53;;;563.20;768.00;;;;;;4840671;29;20105;-72
2021/03/29 09:07:42;;;;;;;9.73;5.03;;;563.40;768.00;;;;;;4823943;29;20038;-72
2021/03/29 09:10:14;;;;;;;;;;;538.50;768.00;;;;;;4822228;29;20056;-71
2021/03/29 09:12:40;;;;;;;13.38;6.07;;;537.90;768.00;;;;;;4823110;29;19912;-71
2021/03/29 09:15:16;;;;;;;10.18;6.05;;;563.50;768.00;;;;;;4836344;29;20030;-71
2021/03/29 09:17:43;;;;;;;10.82;6.15;;;563.40;793.60;;;;;;4839289;29;20533;-71
2021/03/29 09:20:19;;;;;;;10.90;6.20;;;564.00;742.40;;;;;;4841485;29;20086;-71
2021/03/29 09:22:46;;;;;;;8.73;4.72;;;588.80;742.40;;;;;;4840098;29;20052;-71
2021/03/29 09:25:21;;;;;;;9.20;5.53;;;564.10;742.40;;;;;;4823141;29;20040;-71
2021/03/29 09:27:48;;;;;;;7.22;4.95;;;589.10;716.80;;;;;;4822952;29;20046;-72
2021/03/29 09:30:14;;;;;;;8.52;4.82;;;588.90;742.40;;;;;;4841394;29;20036;-71
2021/03/29 09:32:43;;;;;;;10.50;4.82;;;588.80;716.80;;;;;;4822251;29;20124;-71
2021/03/29 09:35:10;;;;;;;13.07;4.07;;;564.00;716.80;;;;;;4840817;29;21579;-71
2021/03/29 09:37:46;;;;;;;7.25;3.75;;;564.00;742.40;;;;;;4838922;29;20637;-71
2021/03/29 09:40:12;;;;;;;9.30;3.53;;;563.90;742.40;;;;;;4839840;29;20026;-71
2021/03/29 09:42:46;;;;;;;10.13;4.60;;;564.00;742.40;;;;;;4841640;29;20045;-71
2021/03/29 09:45:23;;;;;;;7.78;3.45;;;588.80;716.80;;;;;;4839686;29;20109;-72
2021/03/29 09:48:03;;;;;;;9.38;4.90;;;589.00;716.80;;;;;;4840536;29;20057;-76
2021/03/29 09:50:31;;;;;;;11.85;5.28;;;589.30;716.80;;;;;;4840231;29;20094;-72
2021/03/29 09:53:11;;;;;;;8.70;5.20;;;614.40;716.80;;;;;;4822988;29;20583;-73
2021/03/29 09:55:46;;;;;;;12.32;5.00;;;589.40;716.80;;;;;;4837986;29;20491;-73
2021/03/29 09:58:20;;;;;;;7.05;4.25;;;588.90;742.40;;;;;;4822919;29;20106;-72
2021/03/29 10:00:46;;;;;;;9.23;4.28;;;589.00;742.40;;;;;;4839600;29;20044;-71
2021/03/29 10:03:19;;;;;;;14.82;5.00;;;589.10;716.80;;;;;;4839382;29;20030;-71
2021/03/29 10:05:46;;;;;;;9.43;4.53;;;588.90;742.40;;;;;;4839132;29;20028;-71
2021/03/29 10:08:22;;;;;;;10.35;4.28;;;589.20;716.80;;;;;;4821934;29;20041;-71
2021/03/29 10:11:03;;;;;;;12.15;3.58;;;589.30;691.20;;;;;;4837590;29;20426;-72
2021/03/29 10:13:47;;;;;;;6.75;3.95;;;589.40;691.20;;;;;;4822449;29;20468;-72
2021/03/29 10:16:23;;;;;;;9.25;4.40;;;614.70;691.20;;;;;;4840068;29;20041;-73
2021/03/29 10:19:19;;;;;;;9.50;4.97;;;589.40;716.80;;;;;;4819601;29;20093;-73
2021/03/29 10:22:03;;;;;;;10.88;4.80;;;614.70;691.20;;;;;;4822594;29;20121;-73
2021/03/29 10:24:31;;;;;;;17.50;6.03;;;614.60;691.20;;;;;;4818107;29;20026;-73
2021/03/29 10:27:08;;;;;;;22.63;11.57;;;615.20;665.60;;;;;;4821293;29;20049;-73
2021/03/29 10:29:41;;;;;;;11.25;4.25;;;615.30;665.60;;;;;;4833247;29;20033;-73
2021/03/29 10:32:12;;;;;;;16.10;8.80;;;615.00;665.60;;;;;;4821580;29;20112;-73
2021/03/29 10:34:41;;;;;;;10.68;4.03;;;615.10;691.20;;;;;;4820521;29;20757;-72
2021/03/29 10:37:28;;;;;;;9.63;5.00;;;615.00;665.60;;;;;;4838322;29;20109;-72
2021/03/29 10:39:55;;;;;;;9.88;5.00;;;615.20;691.20;;;;;;4748703;30;20051;-71
2021/03/29 10:42:24;;;;;;;9.50;5.30;;;640.30;640.00;;;;;;4762382;30;20044;-72
2021/03/29 10:44:51;;;;;;;6.10;3.10;;;640.70;614.40;;;;;;4761735;30;20090;-72
2021/03/29 10:47:17;;;;;;;12.65;6.20;;;640.10;640.00;;;;;;4762466;30;20035;-72
2021/03/29 10:49:43;;;;;;;10.23;4.20;;;640.80;640.00;;;;;;4761918;30;20081;-72
2021/03/29 10:52:09;;;;;;;11.60;5.50;;;640.70;614.40;;;;;;4761061;30;20055;-72
2021/03/29 10:54:36;;;;;;;14.48;12.10;;;640.50;640.00;;;;;;4761823;30;20093;-72
2021/03/29 10:57:03;;;;;;;11.82;10.73;;;640.20;640.00;;;;;;4762108;30;20125;-71
2021/03/29 10:59:30;;;;;;;8.10;4.95;;;640.30;640.00;;;;;;4761759;30;20042;-72
2021/03/29 11:01:57;;;;;;;8.48;5.03;;;640.70;614.40;;;;;;4759447;30;20051;-72
2021/03/29 11:04:23;;;;;;;12.23;4.72;;;665.80;614.40;;;;;;4753727;30;20104;-73
2021/03/29 11:06:49;;;;;;;13.65;6.10;;;665.70;640.00;;;;;;4755751;30;20039;-72
2021/03/29 11:09:14;;;;;;;8.40;4.47;;;665.80;640.00;;;;;;4761537;30;20165;-72
2021/03/29 11:11:40;;;;;;;13.38;7.10;;;665.80;614.40;;;;;;4760931;30;20542;-73
2021/03/29 11:14:06;;;;;;;10.63;5.68;;;640.50;614.40;;;;;;4764990;30;20682;-73
2021/03/29 11:16:33;;;;;;;14.05;6.20;;;640.20;640.00;;;;;;4789980;29;20445;-73
2021/03/29 11:18:59;;;;;;;15.30;6.97;;;640.10;640.00;;;;;;4842774;29;20590;-74
2021/03/29 11:21:25;;;;;;;13.45;5.85;;;640.30;640.00;;;;;;4842947;29;20116;-73
2021/03/29 11:23:51;;;;;;;9.48;5.10;;;640.00;665.60;;;;;;4836994;29;20031;-73
2021/03/29 11:26:17;;;;;;;19.88;9.10;;;640.00;665.60;;;;;;4841229;29;20148;-73
2021/03/29 11:28:44;;;;;;;11.52;6.10;;;614.90;691.20;;;;;;4841370;29;20560;-72
2021/03/29 11:31:09;;;;;;;11.93;5.95;;;640.00;665.60;;;;;;4818983;29;20124;-72
2021/03/29 11:33:35;;;;;;;9.60;5.10;;;640.40;640.00;;;;;;4840434;29;20115;-72
2021/03/29 11:36:01;;;;;;;9.48;3.97;;;640.70;640.00;;;;;;4840858;29;20105;-73
2021/03/29 11:38:27;;;;;;;6.50;3.78;;;665.80;614.40;;;;;;4827708;29;20050;-73
2021/03/29 11:40:54;;;;;;;8.15;4.28;;;666.10;614.40;;;;;;4817421;29;20558;-73
2021/03/29 11:43:20;;;;;;;7.95;4.25;;;640.80;614.40;;;;;;4821865;29;20034;-73
2021/03/29 11:45:46;;;;;;;8.77;4.10;;;615.10;665.60;;;;;;4837615;29;20448;-73
2021/03/29 11:48:11;;;;;;;7.63;3.15;;;640.00;640.00;;;;;;4840441;29;20058;-73
2021/03/29 11:50:37;;;;;;;11.38;3.90;;;640.50;614.40;;;;;;4839677;29;20037;-73
2021/03/29 11:53:03;;;;;;;9.40;3.45;;;640.60;614.40;;;;;;4842919;29;20030;-73
2021/03/29 11:55:29;;;;;;;6.80;2.95;;;665.80;588.80;;;;;;4842386;29;20913;-74
2021/03/29 11:57:55;;;;;;;5.20;3.90;;;665.90;588.80;;;;;;4842815;29;20081;-73
2021/03/29 12:00:37;;;;;;;9.77;4.00;;;666.40;588.80;;;;;;4841920;29;20046;-73
2021/03/29 12:05:41;;;;;;;6.22;3.95;;;665.80;640.00;;;;;;4840579;29;20832;-73
2021/03/29 12:13:21;;;;;;;11.73;4.47;;;665.70;614.40;;;;;;4836006;29;20053;-73
2021/03/29 12:15:51;;;;;;;8.45;3.88;;;666.50;588.80;;;;;;4839196;29;20037;-74
2021/03/29 12:21:04;;;;;;;6.10;4.03;;;717.30;563.20;;;;;;4841884;29;20045;-74
2021/03/29 12:23:31;;;;;;;9.13;5.10;;;717.00;588.80;;;;;;4841221;29;20030;-74
2021/03/29 12:25:58;;;;;;;10.10;3.88;;;665.90;614.40;;;;;;4825538;29;20090;-74
2021/03/29 12:28:28;;;;;;;9.40;4.30;;;666.40;614.40;;;;;;4825179;29;20041;-74
2021/03/29 12:30:56;;;;;;;17.08;5.82;;;666.40;588.80;;;;;;4842176;29;20025;-74
2021/03/29 12:33:22;;;;;;;14.25;4.63;;;691.20;614.40;;;;;;4824925;29;20095;-74